createdAt,value
2018-09-25T00:01:50.450Z,2.80
2018-09-25T00:04:25.482Z,1.87
2018-09-25T00:07:00.728Z,1.97
2018-09-25T00:09:36.338Z,2.07
2018-09-25T00:12:11.538Z,4.23
2018-09-25T00:14:46.887Z,2.50
2018-09-25T00:17:27.827Z,2.90
2018-09-25T00:20:02.919Z,2.30
2018-09-25T00:22:38.089Z,3.87
2018-09-25T00:25:13.290Z,3.13
2018-09-25T00:27:48.324Z,2.97
2018-09-25T00:30:23.562Z,3.50
2018-09-25T00:32:59.052Z,2.73
2018-09-25T00:35:34.301Z,3.33
2018-09-25T00:38:09.415Z,3.07
2018-09-25T00:40:44.445Z,2.57
2018-09-25T00:43:19.375Z,2.50
2018-09-25T00:45:54.562Z,3.13
2018-09-25T00:48:30.921Z,2.77
2018-09-25T00:51:06.050Z,3.33
2018-09-25T00:53:41.033Z,3.50
2018-09-25T00:56:16.301Z,3.37
2018-09-25T00:58:51.360Z,2.97
2018-09-25T01:01:26.983Z,3.43
2018-09-25T01:04:02.116Z,4.33
2018-09-25T01:06:37.178Z,2.80
2018-09-25T01:09:13.793Z,3.53
2018-09-25T01:11:48.750Z,2.70
2018-09-25T01:14:23.937Z,2.90
2018-09-25T01:16:59.027Z,5.43
2018-09-25T01:19:34.162Z,2.40
2018-09-25T01:22:09.352Z,3.57
2018-09-25T01:24:44.577Z,2.43
2018-09-25T01:27:19.682Z,4.10
2018-09-25T01:29:54.702Z,2.73
2018-09-25T01:32:30.097Z,2.33
2018-09-25T01:35:05.213Z,4.27
2018-09-25T01:37:40.677Z,3.67
2018-09-25T01:40:16.003Z,3.20
2018-09-25T01:42:51.295Z,1.60
2018-09-25T01:45:26.501Z,2.73
2018-09-25T01:48:02.382Z,3.33
2018-09-25T01:50:37.423Z,3.47
2018-09-25T01:53:12.638Z,2.53
2018-09-25T01:55:47.842Z,2.70
2018-09-25T01:58:22.957Z,2.00
2018-09-25T02:00:58.006Z,5.93
2018-09-25T02:03:33.344Z,3.17
2018-09-25T02:06:08.545Z,3.03
2018-09-25T02:08:43.674Z,4.80
2018-09-25T02:11:18.719Z,3.90
2018-09-25T02:13:54.032Z,3.53
2018-09-25T02:16:29.279Z,3.40
2018-09-25T02:19:04.601Z,2.50
2018-09-25T02:21:40.363Z,2.60
2018-09-25T02:24:15.744Z,3.80
2018-09-25T02:26:50.818Z,4.07
2018-09-25T02:29:25.996Z,1.93
2018-09-25T02:32:01.496Z,2.23
2018-09-25T02:34:36.794Z,3.90
2018-09-25T02:37:12.461Z,3.27
2018-09-25T02:39:47.757Z,2.97
2018-09-25T02:42:22.945Z,2.60
2018-09-25T02:44:58.089Z,2.57
2018-09-25T02:47:33.432Z,3.20
2018-09-25T02:50:08.571Z,2.20
2018-09-25T02:52:44.682Z,3.47
2018-09-25T02:55:19.896Z,3.63
2018-09-25T02:57:55.049Z,1.90
2018-09-25T03:00:30.096Z,4.17
2018-09-25T03:03:05.200Z,3.90
2018-09-25T03:05:40.821Z,2.80
2018-09-25T03:08:15.950Z,4.07
2018-09-25T04:04:40.737Z,3.13
2018-09-25T04:07:16.001Z,4.97
2018-09-25T04:09:51.139Z,2.87
2018-09-25T04:12:26.452Z,3.27
2018-09-25T04:15:04.366Z,3.57
2018-09-25T04:17:39.445Z,4.57
2018-09-25T04:20:21.156Z,3.70
2018-09-25T04:22:58.142Z,4.20
2018-09-25T04:25:34.117Z,3.23
2018-09-25T04:28:18.762Z,3.60
2018-09-25T04:31:04.972Z,3.57
2018-09-25T04:33:50.453Z,5.23
2018-09-25T04:36:36.988Z,3.57
2018-09-25T04:39:24.208Z,4.37
2018-09-25T04:42:03.670Z,3.27
2018-09-25T04:44:44.961Z,4.30
2018-09-25T04:47:29.370Z,3.20
2018-09-25T04:50:15.950Z,4.00
2018-09-25T04:53:00.749Z,5.00
2018-09-25T04:55:45.406Z,2.60
2018-09-25T04:58:30.295Z,4.03
2018-09-25T05:01:18.120Z,4.17
2018-09-25T05:04:13.417Z,5.42
2018-09-25T05:06:55.594Z,3.30
2018-09-25T05:09:37.402Z,2.67
2018-09-25T05:12:21.683Z,3.90
2018-09-25T05:15:06.415Z,4.33
2018-09-25T05:17:51.973Z,3.70
2018-09-25T05:20:37.605Z,2.40
2018-09-25T05:23:19.646Z,4.40
2018-09-25T05:25:59.903Z,3.90
2018-09-25T05:28:45.390Z,5.23
2018-09-25T05:31:32.621Z,6.23
2018-09-25T05:34:17.795Z,5.70
2018-09-25T05:36:59.633Z,3.97
2018-09-25T05:39:41.953Z,3.97
2018-09-25T05:42:19.513Z,2.90
2018-09-25T05:44:55.784Z,4.30
2018-09-25T16:41:22.368Z,4.70
2018-09-25T16:43:57.551Z,2.83
2018-09-25T16:46:32.789Z,3.63
2018-09-25T16:49:07.808Z,5.17
2018-09-25T16:51:43.705Z,2.33
2018-09-25T16:54:18.827Z,2.93
2018-09-25T16:56:53.971Z,4.33
2018-09-25T16:59:29.064Z,2.67
2018-09-25T17:02:04.206Z,2.10
2018-09-25T17:04:39.218Z,2.77
2018-09-25T17:07:14.469Z,3.43
2018-09-25T17:09:49.652Z,4.10
2018-09-25T17:12:24.876Z,5.90
2018-09-25T17:15:00.001Z,6.20
2018-09-25T17:17:35.090Z,4.27
2018-09-25T17:20:10.298Z,4.37
2018-09-25T17:22:45.415Z,5.23
2018-09-25T17:25:20.933Z,5.43
2018-09-25T17:27:57.058Z,3.53
2018-09-25T17:30:32.133Z,4.60
2018-09-25T17:33:07.259Z,5.80
2018-09-25T17:35:42.978Z,3.07
2018-09-25T17:38:19.245Z,3.70
2018-09-25T17:40:54.614Z,3.77
2018-09-25T17:43:29.795Z,3.63
2018-09-25T17:46:05.791Z,4.80
2018-09-25T17:48:41.509Z,2.53
2018-09-25T17:51:16.792Z,3.30
2018-09-25T17:53:55.817Z,5.90
2018-09-25T17:56:32.165Z,4.00
2018-09-25T17:59:07.875Z,4.47
2018-09-25T18:01:42.820Z,5.33
2018-09-25T18:04:18.919Z,4.33
2018-09-25T18:06:55.555Z,5.13
2018-09-25T18:09:30.937Z,6.53
2018-09-25T18:12:06.304Z,6.30
2018-09-25T18:14:41.744Z,5.83
2018-09-25T18:17:17.018Z,6.00
2018-09-25T18:19:52.510Z,8.73
2018-09-25T18:22:27.728Z,5.80
2018-09-25T18:25:02.921Z,9.20
2018-09-25T18:27:39.056Z,9.03
2018-09-25T18:30:15.216Z,7.07
2018-09-25T18:32:50.409Z,10.30
2018-09-25T18:35:25.545Z,8.97
2018-09-25T18:38:00.933Z,8.23
2018-09-25T18:40:36.201Z,9.23
2018-09-25T18:43:11.361Z,9.07
2018-09-25T18:45:47.557Z,8.33
2018-09-25T18:48:22.674Z,9.43
2018-09-25T18:50:57.819Z,6.90
2018-09-25T18:53:33.543Z,5.30
2018-09-25T18:56:08.662Z,6.37
2018-09-25T18:58:43.851Z,7.83
2018-09-25T19:01:19.192Z,5.40
2018-09-25T19:03:54.262Z,6.27
2018-09-25T19:06:29.696Z,6.40
2018-09-25T19:09:04.874Z,6.40
2018-09-25T19:11:40.145Z,6.33
2018-09-25T19:14:15.635Z,6.20
2018-09-25T19:16:50.714Z,6.63
2018-09-25T19:19:25.905Z,6.07
2018-09-25T19:22:01.125Z,8.33
2018-09-25T19:24:36.630Z,8.13
2018-09-25T19:27:11.618Z,6.30
2018-09-25T19:29:47.110Z,7.47
2018-09-25T19:32:22.459Z,7.63
2018-09-25T19:34:57.535Z,5.23
2018-09-25T19:37:32.989Z,7.17
